Terminal Aerodrome Forecast
Issued by NWS

Home | Current Version | Previous Version | Graphics & Text | Print | Product List | Glossary On
Versions: 1 2 3 4 5 6 7 8 9 10 11 12 13
197
FTUS43 KBIS 261732
TAFMOT
TAF
KMOT 261732Z 2618/2718 08012G17KT P6SM VCSH OVC025
     FM270000 09008KT P6SM SCT025 OVC035
     FM270500 07006KT P6SM OVC020
     FM271100 05007KT P6SM VCSH SCT015 OVC035
     FM271500 07011KT P6SM -RA BKN018 OVC045=

USA.gov is the U.S. government's official web portal to all federal, state and local government web resources and services.